Huvudsida
METAR-TAF:

METAR-TAF

Flygplatser :

Småland Airport

Växjö, Sverige

latitud: 56-51N, longitud: 014-50E, höjd: 199 m

Aktuellt väderrapport

Denna rapport gjordes för 32 minuter sedan, klockan 04:20 UTC
Vind 10 kt från syd
Temperatur 3°C
Fuktighet 100%
Tryck 1001 hPa
Sikt 10 km eller mer

METAR: ESMX 190420Z AUTO 19010KT 9999 OVC007/// 03/03 Q1001

Tid: 05:52 (04:52 UTC)

Väderprognos

Denna rapport gjordes för 22 minuter sedan, klockan 04:30 UTC
Prognos gäller från 19 kl. 05 UTC till 19 kl. 12 UTC
Vind 10 kt från syd/sydväst
Sikt 10 km eller mer
Spridda moln på en höjd av 600 ft
Brutna moln på en höjd av 1200 ft
Temporärt
från 19 kl. 05 UTC till 19 kl. 12 UTC
Sikt: 4000 m
Brutna moln på en höjd av 800 ft
Brutna moln på en höjd av 2000 ft, Cumulonimbus.
regn
Blir
från 19 kl. 10 UTC till 19 kl. 12 UTC
Vind 7 kt från väst

TAF: ESMX 190430Z 1905/1912 20010KT 9999 SCT006 BKN012 TEMPO 1905/1912 4000 RA BKN008 BKN020CB BECMG 1910/1912 28007KT

Aktuella väderrapporter och prognoser från 4000 flygplatser (METAR- och TAF-rapporter).

De tillgängliga stationerna syns som gula och röda prickar på kartan.

För musen över prickarna för att se namnen på stationerna.

Klicka sedan för att få väderrapporter och prognoser.

För att ändra kartan: Klicka på de gröna knapparna med ett svart kors på för att zooma in; den gröna knappen med ett streck på för att zooma ut; eller på de gröna pilarna för angränsande kartor.


METAR-TAF: